Monday, February 19, 2018, 5:09 AM EST
Back to Local

KBGR, Bangor Int'l Airport

Location: Bangor, ME, United States Lat: 44.8
Local Time: 5:09 AM EST (10:09 GMT) Lon: -68.817
Time Zone: US/Eastern Elev: 193 ft

Show me the last for .
Show Decoded

2018-02-19 04:53 METAR KBGR 190953Z 14003KT 10SM CLR M14/M14 A3051 RMK AO2 SLP335 I1000 T11441144
                 =
2018-02-19 03:53 METAR KBGR 190853Z 00000KT 10SM CLR M11/M12 A3051 RMK AO2 SLP337 I1000 I3001
                 T11061117 50008 =
2018-02-19 02:53 METAR KBGR 190753Z 19004KT 10SM CLR M12/M12 A3052 RMK AO2 SLP338 T11171122 =
2018-02-19 01:53 METAR KBGR 190653Z 00000KT 10SM CLR M11/M12 A3051 RMK AO2 SLP334 I1001 T11111117
                 =
2018-02-19 00:53 METAR KBGR 190553Z 00000KT 10SM CLR M11/M12 A3049 RMK AO2 SLP329 4/006 I1000
                 I6000 T11061117 10006 21122 53004 =
2018-02-18 23:53 METAR KBGR 190453Z 00000KT 10SM CLR M09/M11 A3047 RMK AO2 SLP323 T10941106
                 400281122 =
2018-02-18 22:53 METAR KBGR 190353Z 00000KT 10SM CLR M08/M11 A3048 RMK AO2 SLP327 T10831106 =
2018-02-18 21:53 METAR KBGR 190253Z 00000KT 10SM CLR M06/M09 A3048 RMK AO2 SLP324 T10611094 53036
                 =
2018-02-18 20:53 METAR KBGR 190153Z 28003KT 10SM CLR M02/M08 A3044 RMK AO2 SLP310 T10171078 =
2018-02-18 19:53 METAR KBGR 190053Z 26003KT 10SM CLR 00/M07 A3041 RMK AO2 SLP299 T00001072 =
2018-02-18 18:53 METAR KBGR 182353Z 29005KT 10SM OVC055 01/M07 A3037 RMK AO2 SLP287 4/006
                 T00061072 10028 20006 52049 =
2018-02-18 17:53 METAR KBGR 182253Z 29004KT 10SM OVC055 01/M07 A3034 RMK AO2 SLP276 T00111067 =
2018-02-18 16:53 METAR KBGR 182153Z 29005KT 10SM BKN055 01/M07 A3026 RMK AO2 SLP248 T00111067 =
2018-02-18 15:53 METAR KBGR 182053Z 32013KT 10SM BKN044 02/M07 A3022 RMK AO2 SLP236 T00171072
                 53036 =
2018-02-18 14:53 METAR KBGR 181953Z 32012KT 10SM BKN038 01/M06 A3018 RMK AO2 SLP221 T00111061 =
2018-02-18 13:53 METAR KBGR 181853Z 31011G19KT 10SM BKN043 03/M06 A3013 RMK AO2 SLP206 T00281061
                 =
2018-02-18 12:53 METAR KBGR 181753Z 32020G23KT 10SM BKN035 02/M05 A3012 RMK AO2 SLP201 4/006
                 60004 T00221050 10022 21033 50003 =
2018-02-18 11:53 METAR KBGR 181653Z 32013KT 10SM FEW022 BKN029 01/M04 A3011 RMK AO2 SLP199
                 T00061039 =
2018-02-18 11:50 METAR KBGR 181650Z 32012KT 10SM FEW022 BKN029 01/M04 A3011 RMK AO2 =
2018-02-18 10:53 METAR KBGR 181553Z 34008KT 10SM FEW008 FEW040 BKN200 M01/M03 A3009 RMK AO2
                 SLP191 T10061033 $ =
2018-02-18 09:53 METAR KBGR 181453Z 35007KT 7SM FEW008 SCT041 SCT110 M02/M04 A3005 RMK AO2 SNE37
                 SLP180 P0000 60004 T10171039 51023 $ =
2018-02-18 09:04 METAR KBGR 181404Z 32005KT 3SM -SN BR FEW006 BKN039 OVC049 M03/M04 A3004 RMK AO2
                 P0000 T10281039 $ =
2018-02-18 08:53 METAR KBGR 181353Z 33006KT 2SM -SN FZFG FEW008 BKN035 OVC048 M03/M04 A3003 RMK
                 AO2 SLP172 P0001 T10281039 $ =
2018-02-18 08:46 METAR KBGR 181346Z 33006KT 3/4SM R15/P6000FT SN FZFG FEW008 BKN031 OVC045
                 M03/M04 A3003 RMK AO2 P0001 T10281039 $ =
2018-02-18 08:21 METAR KBGR 181321Z 35005KT 1/2SM R15/P6000FT SN FZFG VV017 M03/M04 A3002 RMK AO2
                 P0001 T10281039 $ =
2018-02-18 07:53 METAR KBGR 181253Z 34006KT 1/2SM R15/3000V4000FT SN FZFG VV014 M03/M04 A3001 RMK
                 AO2 SLP166 P0003 T10331039 $ =
2018-02-18 07:32 METAR KBGR 181232Z 34006KT 3/4SM R15/4000V4500FT SN FZFG VV016 M03/M04 A3000 RMK
                 AO2 P0001 T10331039 $ =
2018-02-18 06:53 METAR KBGR 181153Z 35006KT 1/2SM R15/3000V3500FT SN FZFG VV011 M03/M04 A2998 RMK
                 AO2 SLP156 SNINCR 1/006 4/006 P0003 60013 70014 T10331039 11006 21033 53008 $ =
2018-02-18 06:33 METAR KBGR 181133Z 35009KT 1/2SM R15/3500V4500FT SN FZFG VV011 M03/M04 A2997 RMK
                 AO2 P0001 T10331044 $ =
2018-02-18 05:53 METAR KBGR 181053Z 35010KT 1/2SM R15/4500V5500FT SN FZFG VV006 M02/M03 A2995 RMK
                 AO2 SLP146 SNINCR 1/005 P0005 T10221028 $ =
2018-02-18 05:30 METAR KBGR 181030Z 35006KT 1SM R15/P6000FT -SN BR VV010 M01/M01 A2995 RMK AO2
                 P0003 T10061011 $ =

Support USWX by starting your Amazon purchase here.